sensor_id;sensor_type;location;lat;lon;timestamp;P1;durP1;ratioP1;P2;durP2;ratioP2
54983;SDS011;40884;53.562;9.940;2023-03-21T00:00:14;19.50;;;17.33;;
54983;SDS011;40884;53.562;9.940;2023-03-21T00:01:15;17.90;;;16.10;;
54983;SDS011;40884;53.562;9.940;2023-03-21T00:02:15;19.70;;;17.63;;
54983;SDS011;40884;53.562;9.940;2023-03-21T00:03:15;19.63;;;17.63;;
54983;SDS011;40884;53.562;9.940;2023-03-21T00:04:15;18.17;;;16.27;;
54983;SDS011;40884;53.562;9.940;2023-03-21T00:05:15;18.80;;;16.90;;
54983;SDS011;40884;53.562;9.940;2023-03-21T00:06:16;19.07;;;17.07;;
54983;SDS011;40884;53.562;9.940;2023-03-21T00:07:16;18.87;;;17.07;;
54983;SDS011;40884;53.562;9.940;2023-03-21T00:08:16;19.27;;;17.27;;
54983;SDS011;40884;53.562;9.940;2023-03-21T00:09:16;18.73;;;16.87;;
54983;SDS011;40884;53.562;9.940;2023-03-21T00:10:17;18.77;;;16.90;;
54983;SDS011;40884;53.562;9.940;2023-03-21T00:11:17;18.57;;;16.77;;
54983;SDS011;40884;53.562;9.940;2023-03-21T00:12:17;20.13;;;18.13;;
54983;SDS011;40884;53.562;9.940;2023-03-21T00:13:17;18.77;;;16.73;;
54983;SDS011;40884;53.562;9.940;2023-03-21T00:14:18;19.00;;;17.10;;
54983;SDS011;40884;53.562;9.940;2023-03-21T00:15:18;21.23;;;19.03;;
54983;SDS011;40884;53.562;9.940;2023-03-21T00:16:18;19.60;;;17.60;;
54983;SDS011;40884;53.562;9.940;2023-03-21T00:17:18;20.87;;;18.77;;
54983;SDS011;40884;53.562;9.940;2023-03-21T00:18:19;20.67;;;18.57;;
54983;SDS011;40884;53.562;9.940;2023-03-21T00:19:20;19.80;;;17.70;;
54983;SDS011;40884;53.562;9.940;2023-03-21T00:20:20;21.93;;;19.63;;
54983;SDS011;40884;53.562;9.940;2023-03-21T00:21:20;19.70;;;17.83;;
54983;SDS011;40884;53.562;9.940;2023-03-21T00:22:21;21.17;;;19.03;;
54983;SDS011;40884;53.562;9.940;2023-03-21T00:23:21;20.87;;;18.73;;
54983;SDS011;40884;53.562;9.940;2023-03-21T00:24:21;20.93;;;18.80;;
54983;SDS011;40884;53.562;9.940;2023-03-21T00:25:22;20.30;;;18.20;;
54983;SDS011;40884;53.562;9.940;2023-03-21T00:26:22;20.57;;;18.43;;
54983;SDS011;40884;53.562;9.940;2023-03-21T00:27:22;20.67;;;18.57;;
54983;SDS011;40884;53.562;9.940;2023-03-21T00:28:22;21.57;;;19.37;;
54983;SDS011;40884;53.562;9.940;2023-03-21T00:29:23;21.30;;;19.10;;
54983;SDS011;40884;53.562;9.940;2023-03-21T00:30:23;21.13;;;18.93;;
54983;SDS011;40884;53.562;9.940;2023-03-21T00:31:23;21.03;;;18.83;;
54983;SDS011;40884;53.562;9.940;2023-03-21T00:32:23;20.83;;;18.73;;
54983;SDS011;40884;53.562;9.940;2023-03-21T00:33:23;21.23;;;19.07;;
54983;SDS011;40884;53.562;9.940;2023-03-21T00:34:25;21.40;;;18.90;;
54983;SDS011;40884;53.562;9.940;2023-03-21T00:35:26;22.77;;;20.43;;
54983;SDS011;40884;53.562;9.940;2023-03-21T00:36:26;21.53;;;19.33;;
54983;SDS011;40884;53.562;9.940;2023-03-21T00:37:26;21.57;;;19.37;;
54983;SDS011;40884;53.562;9.940;2023-03-21T00:38:26;22.73;;;20.37;;
54983;SDS011;40884;53.562;9.940;2023-03-21T00:39:26;22.07;;;19.63;;
54983;SDS011;40884;53.562;9.940;2023-03-21T00:40:26;23.37;;;20.77;;
54983;SDS011;40884;53.562;9.940;2023-03-21T00:41:27;22.93;;;20.60;;
54983;SDS011;40884;53.562;9.940;2023-03-21T00:42:27;22.63;;;20.30;;
54983;SDS011;40884;53.562;9.940;2023-03-21T00:43:27;22.60;;;20.30;;
54983;SDS011;40884;53.562;9.940;2023-03-21T00:44:27;22.30;;;20.03;;
54983;SDS011;40884;53.562;9.940;2023-03-21T00:45:28;24.57;;;22.07;;
54983;SDS011;40884;53.562;9.940;2023-03-21T00:46:28;22.73;;;20.37;;
54983;SDS011;40884;53.562;9.940;2023-03-21T00:47:28;23.30;;;20.77;;
54983;SDS011;40884;53.562;9.940;2023-03-21T00:48:28;23.57;;;21.10;;
54983;SDS011;40884;53.562;9.940;2023-03-21T00:49:28;24.33;;;21.73;;
54983;SDS011;40884;53.562;9.940;2023-03-21T00:50:28;24.30;;;21.70;;
54983;SDS011;40884;53.562;9.940;2023-03-21T00:51:29;23.00;;;20.60;;
54983;SDS011;40884;53.562;9.940;2023-03-21T00:52:29;23.57;;;21.07;;
54983;SDS011;40884;53.562;9.940;2023-03-21T00:53:29;23.67;;;21.17;;
54983;SDS011;40884;53.562;9.940;2023-03-21T00:54:32;25.73;;;22.13;;
54983;SDS011;40884;53.562;9.940;2023-03-21T00:55:32;24.67;;;22.07;;
54983;SDS011;40884;53.562;9.940;2023-03-21T00:56:33;25.43;;;22.73;;
54983;SDS011;40884;53.562;9.940;2023-03-21T00:57:33;25.03;;;22.33;;
54983;SDS011;40884;53.562;9.940;2023-03-21T00:58:33;25.27;;;22.57;;
54983;SDS011;40884;53.562;9.940;2023-03-21T00:59:33;24.67;;;22.07;;
54983;SDS011;40884;53.562;9.940;2023-03-21T01:00:33;28.00;;;23.47;;
54983;SDS011;40884;53.562;9.940;2023-03-21T01:01:33;25.73;;;23.03;;
54983;SDS011;40884;53.562;9.940;2023-03-21T01:02:33;26.17;;;22.20;;
54983;SDS011;40884;53.562;9.940;2023-03-21T01:03:34;24.60;;;22.00;;
54983;SDS011;40884;53.562;9.940;2023-03-21T01:04:34;25.10;;;22.50;;
54983;SDS011;40884;53.562;9.940;2023-03-21T01:05:38;27.50;;;24.40;;
54983;SDS011;40884;53.562;9.940;2023-03-21T01:06:38;25.47;;;22.80;;
54983;SDS011;40884;53.562;9.940;2023-03-21T01:07:39;25.63;;;22.97;;
54983;SDS011;40884;53.562;9.940;2023-03-21T01:08:40;25.03;;;22.33;;
54983;SDS011;40884;53.562;9.940;2023-03-21T01:09:41;26.27;;;23.57;;
54983;SDS011;40884;53.562;9.940;2023-03-21T01:10:42;28.93;;;24.93;;
54983;SDS011;40884;53.562;9.940;2023-03-21T01:11:42;27.17;;;23.97;;
54983;SDS011;40884;53.562;9.940;2023-03-21T01:12:44;26.63;;;23.73;;
54983;SDS011;40884;53.562;9.940;2023-03-21T01:13:44;25.83;;;23.13;;
54983;SDS011;40884;53.562;9.940;2023-03-21T01:14:45;26.03;;;23.23;;
54983;SDS011;40884;53.562;9.940;2023-03-21T01:15:46;26.57;;;23.53;;
54983;SDS011;40884;53.562;9.940;2023-03-21T01:16:46;25.90;;;23.07;;
54983;SDS011;40884;53.562;9.940;2023-03-21T01:17:47;28.93;;;24.33;;
54983;SDS011;40884;53.562;9.940;2023-03-21T01:18:47;25.93;;;23.13;;
54983;SDS011;40884;53.562;9.940;2023-03-21T01:19:47;25.63;;;23.00;;
54983;SDS011;40884;53.562;9.940;2023-03-21T01:20:47;26.43;;;23.63;;
54983;SDS011;40884;53.562;9.940;2023-03-21T01:21:47;27.23;;;24.33;;
54983;SDS011;40884;53.562;9.940;2023-03-21T01:22:47;27.97;;;23.90;;
54983;SDS011;40884;53.562;9.940;2023-03-21T01:23:47;27.50;;;24.37;;
54983;SDS011;40884;53.562;9.940;2023-03-21T01:24:47;26.37;;;23.57;;
54983;SDS011;40884;53.562;9.940;2023-03-21T01:25:48;26.93;;;23.47;;
54983;SDS011;40884;53.562;9.940;2023-03-21T01:26:48;27.27;;;24.37;;
54983;SDS011;40884;53.562;9.940;2023-03-21T01:27:48;28.20;;;24.60;;
54983;SDS011;40884;53.562;9.940;2023-03-21T01:28:49;27.27;;;24.10;;
54983;SDS011;40884;53.562;9.940;2023-03-21T01:29:49;26.53;;;23.67;;
54983;SDS011;40884;53.562;9.940;2023-03-21T01:30:50;26.70;;;23.63;;
54983;SDS011;40884;53.562;9.940;2023-03-21T01:31:50;26.73;;;23.27;;
54983;SDS011;40884;53.562;9.940;2023-03-21T01:32:51;27.20;;;24.33;;
54983;SDS011;40884;53.562;9.940;2023-03-21T01:33:51;26.93;;;24.03;;
54983;SDS011;40884;53.562;9.940;2023-03-21T01:34:51;27.00;;;24.10;;
54983;SDS011;40884;53.562;9.940;2023-03-21T01:35:54;28.57;;;25.00;;
54983;SDS011;40884;53.562;9.940;2023-03-21T01:36:54;28.00;;;24.60;;
54983;SDS011;40884;53.562;9.940;2023-03-21T01:37:55;27.67;;;24.63;;
54983;SDS011;40884;53.562;9.940;2023-03-21T01:38:55;27.73;;;24.73;;
54983;SDS011;40884;53.562;9.940;2023-03-21T01:39:55;27.33;;;24.43;;
54983;SDS011;40884;53.562;9.940;2023-03-21T01:40:55;27.73;;;24.80;;
54983;SDS011;40884;53.562;9.940;2023-03-21T01:42:02;27.90;;;25.00;;
54983;SDS011;40884;53.562;9.940;2023-03-21T01:43:03;29.37;;;25.70;;
54983;SDS011;40884;53.562;9.940;2023-03-21T01:44:03;28.37;;;25.37;;
54983;SDS011;40884;53.562;9.940;2023-03-21T01:46:37;30.00;;;26.20;;
54983;SDS011;40884;53.562;9.940;2023-03-21T01:48:00;28.00;;;24.23;;
54983;SDS011;40884;53.562;9.940;2023-03-21T01:49:19;31.50;;;25.97;;
54983;SDS011;40884;53.562;9.940;2023-03-21T01:50:24;29.30;;;25.13;;
54983;SDS011;40884;53.562;9.940;2023-03-21T01:51:32;30.17;;;25.77;;
54983;SDS011;40884;53.562;9.940;2023-03-21T01:52:35;28.57;;;24.97;;
54983;SDS011;40884;53.562;9.940;2023-03-21T01:53:38;31.60;;;27.37;;
54983;SDS011;40884;53.562;9.940;2023-03-21T01:54:39;32.45;;;26.27;;
54983;SDS011;40884;53.562;9.940;2023-03-21T01:55:41;29.27;;;25.53;;
54983;SDS011;40884;53.562;9.940;2023-03-21T01:56:50;28.57;;;25.37;;
54983;SDS011;40884;53.562;9.940;2023-03-21T01:57:52;29.05;;;25.45;;
54983;SDS011;40884;53.562;9.940;2023-03-21T01:58:55;29.57;;;25.23;;
54983;SDS011;40884;53.562;9.940;2023-03-21T02:00:23;29.77;;;25.30;;
54983;SDS011;40884;53.562;9.940;2023-03-21T02:01:34;28.93;;;25.43;;
54983;SDS011;40884;53.562;9.940;2023-03-21T02:02:34;30.00;;;25.60;;
54983;SDS011;40884;53.562;9.940;2023-03-21T02:03:51;30.47;;;25.63;;
54983;SDS011;40884;53.562;9.940;2023-03-21T02:05:12;30.00;;;25.17;;
54983;SDS011;40884;53.562;9.940;2023-03-21T02:06:12;28.80;;;25.53;;
54983;SDS011;40884;53.562;9.940;2023-03-21T02:07:17;31.47;;;27.53;;
54983;SDS011;40884;53.562;9.940;2023-03-21T02:08:25;30.53;;;26.60;;
54983;SDS011;40884;53.562;9.940;2023-03-21T02:09:26;29.67;;;25.47;;
54983;SDS011;40884;53.562;9.940;2023-03-21T02:10:27;30.52;;;25.92;;
54983;SDS011;40884;53.562;9.940;2023-03-21T02:11:30;29.65;;;26.20;;
54983;SDS011;40884;53.562;9.940;2023-03-21T02:12:30;30.03;;;26.70;;
54983;SDS011;40884;53.562;9.940;2023-03-21T02:13:31;30.00;;;26.27;;
54983;SDS011;40884;53.562;9.940;2023-03-21T02:14:32;30.97;;;27.00;;
54983;SDS011;40884;53.562;9.940;2023-03-21T02:15:45;27.87;;;24.87;;
54983;SDS011;40884;53.562;9.940;2023-03-21T02:16:59;29.10;;;25.87;;
54983;SDS011;40884;53.562;9.940;2023-03-21T02:18:16;28.15;;;25.15;;
54983;SDS011;40884;53.562;9.940;2023-03-21T02:20:26;28.37;;;25.27;;
54983;SDS011;40884;53.562;9.940;2023-03-21T02:25:00;30.10;;;26.77;;
54983;SDS011;40884;53.562;9.940;2023-03-21T02:26:17;29.50;;;25.00;;
54983;SDS011;40884;53.562;9.940;2023-03-21T02:27:21;29.93;;;26.50;;
54983;SDS011;40884;53.562;9.940;2023-03-21T02:28:23;30.03;;;25.57;;
54983;SDS011;40884;53.562;9.940;2023-03-21T02:30:56;31.85;;;27.13;;
54983;SDS011;40884;53.562;9.940;2023-03-21T02:35:24;31.23;;;27.20;;
54983;SDS011;40884;53.562;9.940;2023-03-21T02:37:28;31.90;;;26.80;;
54983;SDS011;40884;53.562;9.940;2023-03-21T02:38:35;29.93;;;25.73;;
54983;SDS011;40884;53.562;9.940;2023-03-21T02:39:52;28.90;;;25.77;;
54983;SDS011;40884;53.562;9.940;2023-03-21T02:41:09;30.37;;;26.23;;
54983;SDS011;40884;53.562;9.940;2023-03-21T02:43:24;31.58;;;27.60;;
54983;SDS011;40884;53.562;9.940;2023-03-21T02:44:29;33.67;;;28.60;;
54983;SDS011;40884;53.562;9.940;2023-03-21T02:45:38;32.77;;;28.20;;
54983;SDS011;40884;53.562;9.940;2023-03-21T02:46:47;33.37;;;28.13;;
54983;SDS011;40884;53.562;9.940;2023-03-21T02:47:49;32.17;;;26.50;;
54983;SDS011;40884;53.562;9.940;2023-03-21T02:49:54;30.17;;;26.63;;
54983;SDS011;40884;53.562;9.940;2023-03-21T02:50:56;32.42;;;27.15;;
54983;SDS011;40884;53.562;9.940;2023-03-21T02:51:58;30.42;;;27.10;;
54983;SDS011;40884;53.562;9.940;2023-03-21T02:52:58;31.97;;;27.83;;
54983;SDS011;40884;53.562;9.940;2023-03-21T02:54:04;33.10;;;28.10;;
54983;SDS011;40884;53.562;9.940;2023-03-21T02:55:12;31.93;;;27.77;;
54983;SDS011;40884;53.562;9.940;2023-03-21T02:56:18;30.87;;;27.10;;
54983;SDS011;40884;53.562;9.940;2023-03-21T02:57:25;30.60;;;27.27;;
54983;SDS011;40884;53.562;9.940;2023-03-21T02:58:26;30.13;;;26.77;;
54983;SDS011;40884;53.562;9.940;2023-03-21T02:59:30;31.90;;;27.47;;
54983;SDS011;40884;53.562;9.940;2023-03-21T03:00:33;29.23;;;26.10;;
54983;SDS011;40884;53.562;9.940;2023-03-21T03:01:35;30.17;;;26.17;;
54983;SDS011;40884;53.562;9.940;2023-03-21T03:02:35;31.63;;;28.23;;
54983;SDS011;40884;53.562;9.940;2023-03-21T03:03:35;31.93;;;27.13;;
54983;SDS011;40884;53.562;9.940;2023-03-21T03:04:37;33.50;;;28.47;;
54983;SDS011;40884;53.562;9.940;2023-03-21T03:05:42;33.00;;;28.20;;
54983;SDS011;40884;53.562;9.940;2023-03-21T03:06:50;32.43;;;27.90;;
54983;SDS011;40884;53.562;9.940;2023-03-21T03:09:05;33.33;;;27.40;;
54983;SDS011;40884;53.562;9.940;2023-03-21T03:10:49;31.77;;;28.05;;
54983;SDS011;40884;53.562;9.940;2023-03-21T03:11:34;33.70;;;27.77;;
54983;SDS011;40884;53.562;9.940;2023-03-21T03:14:09;31.03;;;27.63;;
54983;SDS011;40884;53.562;9.940;2023-03-21T03:15:19;35.27;;;29.63;;
54983;SDS011;40884;53.562;9.940;2023-03-21T03:16:27;34.57;;;27.77;;
54983;SDS011;40884;53.562;9.940;2023-03-21T03:17:34;35.47;;;29.23;;
54983;SDS011;40884;53.562;9.940;2023-03-21T03:21:17;36.20;;;28.33;;
54983;SDS011;40884;53.562;9.940;2023-03-21T03:22:31;35.47;;;28.90;;
54983;SDS011;40884;53.562;9.940;2023-03-21T03:23:42;33.50;;;27.60;;
54983;SDS011;40884;53.562;9.940;2023-03-21T03:24:53;36.80;;;28.73;;
54983;SDS011;40884;53.562;9.940;2023-03-21T03:26:05;35.37;;;29.37;;
54983;SDS011;40884;53.562;9.940;2023-03-21T03:27:12;32.63;;;28.13;;
54983;SDS011;40884;53.562;9.940;2023-03-21T03:28:16;34.73;;;28.07;;
54983;SDS011;40884;53.562;9.940;2023-03-21T03:29:17;36.37;;;29.63;;
54983;SDS011;40884;53.562;9.940;2023-03-21T03:30:19;33.93;;;28.47;;
54983;SDS011;40884;53.562;9.940;2023-03-21T03:31:21;30.70;;;27.30;;
54983;SDS011;40884;53.562;9.940;2023-03-21T03:32:27;33.77;;;28.07;;
54983;SDS011;40884;53.562;9.940;2023-03-21T03:33:29;34.37;;;28.30;;
54983;SDS011;40884;53.562;9.940;2023-03-21T03:34:31;33.00;;;27.80;;
54983;SDS011;40884;53.562;9.940;2023-03-21T03:35:32;34.53;;;29.37;;
54983;SDS011;40884;53.562;9.940;2023-03-21T03:36:34;33.80;;;28.97;;
54983;SDS011;40884;53.562;9.940;2023-03-21T03:37:38;35.03;;;29.50;;
54983;SDS011;40884;53.562;9.940;2023-03-21T03:38:40;33.43;;;28.17;;
54983;SDS011;40884;53.562;9.940;2023-03-21T03:39:48;36.20;;;29.23;;
54983;SDS011;40884;53.562;9.940;2023-03-21T03:40:51;35.63;;;28.63;;
54983;SDS011;40884;53.562;9.940;2023-03-21T03:42:09;35.63;;;28.83;;
54983;SDS011;40884;53.562;9.940;2023-03-21T03:43:15;35.22;;;28.75;;
54983;SDS011;40884;53.562;9.940;2023-03-21T03:44:16;35.27;;;28.87;;
54983;SDS011;40884;53.562;9.940;2023-03-21T03:45:27;34.63;;;28.60;;
54983;SDS011;40884;53.562;9.940;2023-03-21T03:46:29;35.40;;;29.38;;
54983;SDS011;40884;53.562;9.940;2023-03-21T03:47:37;34.90;;;29.80;;
54983;SDS011;40884;53.562;9.940;2023-03-21T03:48:42;34.97;;;28.63;;
54983;SDS011;40884;53.562;9.940;2023-03-21T03:49:55;36.23;;;28.23;;
54983;SDS011;40884;53.562;9.940;2023-03-21T03:51:01;33.00;;;28.20;;
54983;SDS011;40884;53.562;9.940;2023-03-21T03:52:27;34.17;;;27.30;;
54983;SDS011;40884;53.562;9.940;2023-03-21T03:53:36;33.27;;;28.33;;
54983;SDS011;40884;53.562;9.940;2023-03-21T03:54:37;34.77;;;28.20;;
54983;SDS011;40884;53.562;9.940;2023-03-21T03:55:39;35.43;;;27.63;;
54983;SDS011;40884;53.562;9.940;2023-03-21T03:56:44;31.87;;;26.93;;
54983;SDS011;40884;53.562;9.940;2023-03-21T03:57:45;33.83;;;28.20;;
54983;SDS011;40884;53.562;9.940;2023-03-21T03:58:45;34.67;;;28.40;;
54983;SDS011;40884;53.562;9.940;2023-03-21T03:59:47;34.90;;;28.00;;
54983;SDS011;40884;53.562;9.940;2023-03-21T04:01:08;35.97;;;27.67;;
54983;SDS011;40884;53.562;9.940;2023-03-21T04:02:08;30.70;;;26.73;;
54983;SDS011;40884;53.562;9.940;2023-03-21T04:03:08;33.80;;;27.90;;
54983;SDS011;40884;53.562;9.940;2023-03-21T04:04:08;33.07;;;28.13;;
54983;SDS011;40884;53.562;9.940;2023-03-21T04:05:08;35.33;;;29.00;;
54983;SDS011;40884;53.562;9.940;2023-03-21T04:06:08;34.53;;;29.33;;
54983;SDS011;40884;53.562;9.940;2023-03-21T04:07:09;35.93;;;29.17;;
54983;SDS011;40884;53.562;9.940;2023-03-21T04:08:11;33.03;;;28.37;;
54983;SDS011;40884;53.562;9.940;2023-03-21T04:09:16;35.10;;;28.57;;
54983;SDS011;40884;53.562;9.940;2023-03-21T04:10:17;30.93;;;25.63;;
54983;SDS011;40884;53.562;9.940;2023-03-21T04:11:17;31.30;;;26.93;;
54983;SDS011;40884;53.562;9.940;2023-03-21T04:12:21;31.90;;;26.97;;
54983;SDS011;40884;53.562;9.940;2023-03-21T04:13:42;31.33;;;27.43;;
54983;SDS011;40884;53.562;9.940;2023-03-21T04:14:45;32.70;;;28.07;;
54983;SDS011;40884;53.562;9.940;2023-03-21T04:15:45;31.97;;;26.87;;
54983;SDS011;40884;53.562;9.940;2023-03-21T04:16:49;30.02;;;26.15;;
54983;SDS011;40884;53.562;9.940;2023-03-21T04:17:49;34.13;;;28.30;;
54983;SDS011;40884;53.562;9.940;2023-03-21T04:18:49;31.40;;;26.00;;
54983;SDS011;40884;53.562;9.940;2023-03-21T04:19:52;31.53;;;27.03;;
54983;SDS011;40884;53.562;9.940;2023-03-21T04:20:55;31.48;;;26.88;;
54983;SDS011;40884;53.562;9.940;2023-03-21T04:21:56;33.50;;;27.20;;
54983;SDS011;40884;53.562;9.940;2023-03-21T04:22:56;31.33;;;27.07;;
54983;SDS011;40884;53.562;9.940;2023-03-21T04:23:56;30.60;;;27.30;;
54983;SDS011;40884;53.562;9.940;2023-03-21T04:24:56;29.63;;;25.60;;
54983;SDS011;40884;53.562;9.940;2023-03-21T04:25:56;32.47;;;27.67;;
54983;SDS011;40884;53.562;9.940;2023-03-21T04:27:00;31.40;;;26.97;;
54983;SDS011;40884;53.562;9.940;2023-03-21T04:28:15;32.20;;;26.93;;
54983;SDS011;40884;53.562;9.940;2023-03-21T04:29:25;29.70;;;26.47;;
54983;SDS011;40884;53.562;9.940;2023-03-21T04:30:52;32.08;;;26.90;;
54983;SDS011;40884;53.562;9.940;2023-03-21T04:31:55;32.45;;;27.38;;
54983;SDS011;40884;53.562;9.940;2023-03-21T04:32:55;31.47;;;27.03;;
54983;SDS011;40884;53.562;9.940;2023-03-21T04:33:56;32.93;;;27.00;;
54983;SDS011;40884;53.562;9.940;2023-03-21T04:34:57;31.55;;;26.17;;
54983;SDS011;40884;53.562;9.940;2023-03-21T04:35:57;32.80;;;27.20;;
54983;SDS011;40884;53.562;9.940;2023-03-21T04:36:58;29.93;;;25.63;;
54983;SDS011;40884;53.562;9.940;2023-03-21T04:37:59;30.70;;;26.40;;
54983;SDS011;40884;53.562;9.940;2023-03-21T04:38:59;31.53;;;26.73;;
54983;SDS011;40884;53.562;9.940;2023-03-21T04:39:59;31.97;;;27.53;;
54983;SDS011;40884;53.562;9.940;2023-03-21T04:40:59;30.90;;;26.73;;
54983;SDS011;40884;53.562;9.940;2023-03-21T04:42:02;29.13;;;25.93;;
54983;SDS011;40884;53.562;9.940;2023-03-21T04:43:03;33.10;;;27.40;;
54983;SDS011;40884;53.562;9.940;2023-03-21T04:44:03;33.03;;;27.77;;
54983;SDS011;40884;53.562;9.940;2023-03-21T04:45:03;32.60;;;27.70;;
54983;SDS011;40884;53.562;9.940;2023-03-21T04:46:03;30.73;;;26.70;;
54983;SDS011;40884;53.562;9.940;2023-03-21T04:47:04;32.43;;;27.83;;
54983;SDS011;40884;53.562;9.940;2023-03-21T04:48:04;32.43;;;27.10;;
54983;SDS011;40884;53.562;9.940;2023-03-21T04:49:05;32.07;;;26.10;;
54983;SDS011;40884;53.562;9.940;2023-03-21T04:50:05;30.97;;;26.70;;
54983;SDS011;40884;53.562;9.940;2023-03-21T04:51:05;31.50;;;26.93;;
54983;SDS011;40884;53.562;9.940;2023-03-21T04:52:05;33.80;;;27.40;;
54983;SDS011;40884;53.562;9.940;2023-03-21T04:53:05;30.63;;;27.20;;
54983;SDS011;40884;53.562;9.940;2023-03-21T04:54:06;34.57;;;27.37;;
54983;SDS011;40884;53.562;9.940;2023-03-21T04:55:06;31.67;;;27.23;;
54983;SDS011;40884;53.562;9.940;2023-03-21T04:56:06;33.67;;;28.67;;
54983;SDS011;40884;53.562;9.940;2023-03-21T04:57:07;36.23;;;30.17;;
54983;SDS011;40884;53.562;9.940;2023-03-21T04:58:07;33.73;;;28.83;;
54983;SDS011;40884;53.562;9.940;2023-03-21T04:59:09;34.43;;;29.13;;
54983;SDS011;40884;53.562;9.940;2023-03-21T05:00:10;38.07;;;30.27;;
54983;SDS011;40884;53.562;9.940;2023-03-21T05:01:11;33.73;;;28.57;;
54983;SDS011;40884;53.562;9.940;2023-03-21T05:02:12;37.57;;;29.70;;
54983;SDS011;40884;53.562;9.940;2023-03-21T05:03:12;37.90;;;29.90;;
54983;SDS011;40884;53.562;9.940;2023-03-21T05:04:13;37.80;;;30.33;;
54983;SDS011;40884;53.562;9.940;2023-03-21T05:05:13;32.93;;;29.13;;
54983;SDS011;40884;53.562;9.940;2023-03-21T05:06:13;36.50;;;30.70;;
54983;SDS011;40884;53.562;9.940;2023-03-21T05:07:13;36.63;;;30.23;;
54983;SDS011;40884;53.562;9.940;2023-03-21T05:08:14;39.53;;;30.67;;
54983;SDS011;40884;53.562;9.940;2023-03-21T05:09:14;35.90;;;30.23;;
54983;SDS011;40884;53.562;9.940;2023-03-21T05:10:15;36.57;;;30.43;;
54983;SDS011;40884;53.562;9.940;2023-03-21T05:11:15;36.50;;;30.57;;
54983;SDS011;40884;53.562;9.940;2023-03-21T05:12:15;31.53;;;27.47;;
54983;SDS011;40884;53.562;9.940;2023-03-21T05:13:15;38.37;;;31.40;;
54983;SDS011;40884;53.562;9.940;2023-03-21T05:14:17;37.23;;;30.87;;
54983;SDS011;40884;53.562;9.940;2023-03-21T05:15:17;35.30;;;30.27;;
54983;SDS011;40884;53.562;9.940;2023-03-21T05:16:18;40.60;;;32.83;;
54983;SDS011;40884;53.562;9.940;2023-03-21T05:17:18;42.33;;;32.27;;
54983;SDS011;40884;53.562;9.940;2023-03-21T05:18:18;39.27;;;32.67;;
54983;SDS011;40884;53.562;9.940;2023-03-21T05:19:32;41.00;;;33.30;;
54983;SDS011;40884;53.562;9.940;2023-03-21T05:20:32;37.47;;;32.03;;
54983;SDS011;40884;53.562;9.940;2023-03-21T05:21:32;36.73;;;29.83;;
54983;SDS011;40884;53.562;9.940;2023-03-21T05:22:33;35.50;;;30.67;;
54983;SDS011;40884;53.562;9.940;2023-03-21T05:23:34;38.10;;;31.07;;
54983;SDS011;40884;53.562;9.940;2023-03-21T05:24:34;36.77;;;30.73;;
54983;SDS011;40884;53.562;9.940;2023-03-21T05:25:35;32.93;;;29.07;;
54983;SDS011;40884;53.562;9.940;2023-03-21T05:26:49;37.30;;;32.17;;
54983;SDS011;40884;53.562;9.940;2023-03-21T05:27:51;34.63;;;29.83;;
54983;SDS011;40884;53.562;9.940;2023-03-21T05:28:52;38.37;;;31.77;;
54983;SDS011;40884;53.562;9.940;2023-03-21T05:29:52;36.60;;;30.30;;
54983;SDS011;40884;53.562;9.940;2023-03-21T05:30:52;35.87;;;30.37;;
54983;SDS011;40884;53.562;9.940;2023-03-21T05:31:53;33.80;;;29.40;;
54983;SDS011;40884;53.562;9.940;2023-03-21T05:32:53;33.27;;;29.27;;
54983;SDS011;40884;53.562;9.940;2023-03-21T05:33:53;38.10;;;31.97;;
54983;SDS011;40884;53.562;9.940;2023-03-21T05:34:54;36.33;;;31.50;;
54983;SDS011;40884;53.562;9.940;2023-03-21T05:35:56;36.07;;;30.47;;
54983;SDS011;40884;53.562;9.940;2023-03-21T05:36:58;37.33;;;31.23;;
54983;SDS011;40884;53.562;9.940;2023-03-21T05:38:03;33.10;;;28.93;;
54983;SDS011;40884;53.562;9.940;2023-03-21T05:39:07;31.53;;;28.13;;
54983;SDS011;40884;53.562;9.940;2023-03-21T05:40:11;33.43;;;28.60;;
54983;SDS011;40884;53.562;9.940;2023-03-21T05:41:16;34.80;;;29.80;;
54983;SDS011;40884;53.562;9.940;2023-03-21T05:42:16;36.13;;;29.60;;
54983;SDS011;40884;53.562;9.940;2023-03-21T05:43:17;33.93;;;29.27;;
54983;SDS011;40884;53.562;9.940;2023-03-21T05:44:18;32.37;;;28.27;;
54983;SDS011;40884;53.562;9.940;2023-03-21T05:45:18;36.10;;;30.07;;
54983;SDS011;40884;53.562;9.940;2023-03-21T05:46:18;33.63;;;27.60;;
54983;SDS011;40884;53.562;9.940;2023-03-21T05:47:19;32.80;;;27.13;;
54983;SDS011;40884;53.562;9.940;2023-03-21T05:48:20;31.13;;;27.73;;
54983;SDS011;40884;53.562;9.940;2023-03-21T05:49:42;32.33;;;27.57;;
54983;SDS011;40884;53.562;9.940;2023-03-21T05:50:42;31.77;;;27.97;;
54983;SDS011;40884;53.562;9.940;2023-03-21T05:51:48;31.83;;;27.92;;
54983;SDS011;40884;53.562;9.940;2023-03-21T05:52:48;34.17;;;28.90;;
54983;SDS011;40884;53.562;9.940;2023-03-21T05:53:48;34.53;;;29.87;;
54983;SDS011;40884;53.562;9.940;2023-03-21T05:54:49;31.80;;;28.30;;
54983;SDS011;40884;53.562;9.940;2023-03-21T05:55:50;33.53;;;29.27;;
54983;SDS011;40884;53.562;9.940;2023-03-21T05:57:08;33.50;;;27.97;;
54983;SDS011;40884;53.562;9.940;2023-03-21T05:58:22;34.03;;;29.40;;
54983;SDS011;40884;53.562;9.940;2023-03-21T05:59:24;35.37;;;29.97;;
54983;SDS011;40884;53.562;9.940;2023-03-21T06:00:27;34.23;;;29.80;;
54983;SDS011;40884;53.562;9.940;2023-03-21T06:01:45;37.83;;;30.50;;
54983;SDS011;40884;53.562;9.940;2023-03-21T06:02:48;34.90;;;29.40;;
54983;SDS011;40884;53.562;9.940;2023-03-21T06:04:07;33.10;;;28.90;;
54983;SDS011;40884;53.562;9.940;2023-03-21T06:05:09;31.03;;;27.50;;
54983;SDS011;40884;53.562;9.940;2023-03-21T06:06:09;32.27;;;27.93;;
54983;SDS011;40884;53.562;9.940;2023-03-21T06:07:14;31.50;;;28.03;;
54983;SDS011;40884;53.562;9.940;2023-03-21T06:08:14;32.27;;;28.03;;
54983;SDS011;40884;53.562;9.940;2023-03-21T06:09:19;35.07;;;28.63;;
54983;SDS011;40884;53.562;9.940;2023-03-21T06:10:26;33.38;;;28.55;;
54983;SDS011;40884;53.562;9.940;2023-03-21T06:11:30;36.20;;;29.83;;
54983;SDS011;40884;53.562;9.940;2023-03-21T06:12:49;36.83;;;29.55;;
54983;SDS011;40884;53.562;9.940;2023-03-21T06:14:05;35.65;;;30.70;;
54983;SDS011;40884;53.562;9.940;2023-03-21T06:15:06;34.23;;;28.73;;
54983;SDS011;40884;53.562;9.940;2023-03-21T06:16:17;36.57;;;29.63;;
54983;SDS011;40884;53.562;9.940;2023-03-21T06:17:18;34.73;;;29.13;;
54983;SDS011;40884;53.562;9.940;2023-03-21T06:18:26;32.77;;;27.90;;
54983;SDS011;40884;53.562;9.940;2023-03-21T06:19:46;33.67;;;28.77;;
54983;SDS011;40884;53.562;9.940;2023-03-21T06:20:52;31.20;;;27.83;;
54983;SDS011;40884;53.562;9.940;2023-03-21T06:21:52;31.43;;;27.70;;
54983;SDS011;40884;53.562;9.940;2023-03-21T06:22:52;30.53;;;27.20;;
54983;SDS011;40884;53.562;9.940;2023-03-21T06:23:52;33.30;;;28.23;;
54983;SDS011;40884;53.562;9.940;2023-03-21T06:24:53;30.43;;;26.17;;
54983;SDS011;40884;53.562;9.940;2023-03-21T06:25:53;29.73;;;26.53;;
54983;SDS011;40884;53.562;9.940;2023-03-21T06:26:57;30.23;;;26.87;;
54983;SDS011;40884;53.562;9.940;2023-03-21T06:28:00;31.50;;;27.30;;
54983;SDS011;40884;53.562;9.940;2023-03-21T06:29:00;30.80;;;27.47;;